sensor_id;sensor_type;location;lat;lon;timestamp;P1;durP1;ratioP1;P2;durP2;ratioP2
13475;SDS011;6810;63.824;20.288;2024-02-21T00:02:01;2.33;;;1.07;;
13475;SDS011;6810;63.824;20.288;2024-02-21T00:04:48;1.40;;;1.17;;
13475;SDS011;6810;63.824;20.288;2024-02-21T00:07:35;1.27;;;1.17;;
13475;SDS011;6810;63.824;20.288;2024-02-21T00:10:22;1.80;;;1.27;;
13475;SDS011;6810;63.824;20.288;2024-02-21T00:13:09;2.60;;;1.60;;
13475;SDS011;6810;63.824;20.288;2024-02-21T00:15:56;1.80;;;1.53;;
13475;SDS011;6810;63.824;20.288;2024-02-21T00:18:43;2.13;;;1.43;;
13475;SDS011;6810;63.824;20.288;2024-02-21T00:21:32;2.47;;;1.60;;
13475;SDS011;6810;63.824;20.288;2024-02-21T00:24:19;2.00;;;1.63;;
13475;SDS011;6810;63.824;20.288;2024-02-21T00:27:06;2.30;;;1.80;;
13475;SDS011;6810;63.824;20.288;2024-02-21T00:29:52;2.53;;;1.83;;
13475;SDS011;6810;63.824;20.288;2024-02-21T00:32:39;4.27;;;2.20;;
13475;SDS011;6810;63.824;20.288;2024-02-21T00:35:26;2.33;;;1.70;;
13475;SDS011;6810;63.824;20.288;2024-02-21T00:38:13;2.50;;;1.60;;
13475;SDS011;6810;63.824;20.288;2024-02-21T00:41:00;4.13;;;2.03;;
13475;SDS011;6810;63.824;20.288;2024-02-21T00:43:47;2.83;;;2.37;;
13475;SDS011;6810;63.824;20.288;2024-02-21T00:46:34;3.27;;;2.20;;
13475;SDS011;6810;63.824;20.288;2024-02-21T00:49:20;4.00;;;2.60;;
13475;SDS011;6810;63.824;20.288;2024-02-21T00:52:07;3.30;;;2.13;;
13475;SDS011;6810;63.824;20.288;2024-02-21T00:54:54;5.27;;;2.33;;
13475;SDS011;6810;63.824;20.288;2024-02-21T00:57:41;3.33;;;2.10;;
13475;SDS011;6810;63.824;20.288;2024-02-21T01:00:28;3.67;;;2.27;;
13475;SDS011;6810;63.824;20.288;2024-02-21T01:03:15;3.47;;;2.00;;
13475;SDS011;6810;63.824;20.288;2024-02-21T01:06:02;3.33;;;2.17;;
13475;SDS011;6810;63.824;20.288;2024-02-21T01:08:49;3.83;;;2.20;;
13475;SDS011;6810;63.824;20.288;2024-02-21T01:11:36;3.33;;;2.20;;
13475;SDS011;6810;63.824;20.288;2024-02-21T01:14:23;2.87;;;2.07;;
13475;SDS011;6810;63.824;20.288;2024-02-21T01:17:10;2.93;;;2.10;;
13475;SDS011;6810;63.824;20.288;2024-02-21T01:19:57;4.20;;;2.00;;
13475;SDS011;6810;63.824;20.288;2024-02-21T01:22:44;2.70;;;2.23;;
13475;SDS011;6810;63.824;20.288;2024-02-21T01:25:31;3.70;;;2.10;;
13475;SDS011;6810;63.824;20.288;2024-02-21T01:28:18;3.27;;;2.10;;
13475;SDS011;6810;63.824;20.288;2024-02-21T01:31:05;1.70;;;1.60;;
13475;SDS011;6810;63.824;20.288;2024-02-21T01:33:52;2.33;;;2.00;;
13475;SDS011;6810;63.824;20.288;2024-02-21T01:36:39;3.20;;;1.93;;
13475;SDS011;6810;63.824;20.288;2024-02-21T01:39:26;2.47;;;1.80;;
13475;SDS011;6810;63.824;20.288;2024-02-21T01:42:13;2.30;;;2.00;;
13475;SDS011;6810;63.824;20.288;2024-02-21T01:44:59;4.37;;;2.13;;
13475;SDS011;6810;63.824;20.288;2024-02-21T01:47:47;2.33;;;1.73;;
13475;SDS011;6810;63.824;20.288;2024-02-21T01:50:35;2.27;;;1.80;;
13475;SDS011;6810;63.824;20.288;2024-02-21T01:53:23;1.93;;;1.57;;
13475;SDS011;6810;63.824;20.288;2024-02-21T01:56:14;2.20;;;1.60;;
13475;SDS011;6810;63.824;20.288;2024-02-21T01:59:01;1.67;;;1.47;;
13475;SDS011;6810;63.824;20.288;2024-02-21T02:01:48;2.17;;;1.80;;
13475;SDS011;6810;63.824;20.288;2024-02-21T02:04:37;3.43;;;1.90;;
13475;SDS011;6810;63.824;20.288;2024-02-21T02:07:25;2.50;;;1.90;;
13475;SDS011;6810;63.824;20.288;2024-02-21T02:10:12;2.37;;;1.80;;
13475;SDS011;6810;63.824;20.288;2024-02-21T02:13:00;1.93;;;1.67;;
13475;SDS011;6810;63.824;20.288;2024-02-21T02:15:47;2.43;;;2.20;;
13475;SDS011;6810;63.824;20.288;2024-02-21T02:18:35;3.10;;;1.70;;
13475;SDS011;6810;63.824;20.288;2024-02-21T02:21:25;2.80;;;2.20;;
13475;SDS011;6810;63.824;20.288;2024-02-21T02:24:16;2.73;;;1.90;;
13475;SDS011;6810;63.824;20.288;2024-02-21T02:27:03;2.60;;;1.70;;
13475;SDS011;6810;63.824;20.288;2024-02-21T02:29:50;2.50;;;1.90;;
13475;SDS011;6810;63.824;20.288;2024-02-21T02:32:37;2.50;;;1.70;;
13475;SDS011;6810;63.824;20.288;2024-02-21T02:35:24;2.57;;;1.80;;
13475;SDS011;6810;63.824;20.288;2024-02-21T02:38:10;2.17;;;1.87;;
13475;SDS011;6810;63.824;20.288;2024-02-21T02:40:58;2.67;;;2.13;;
13475;SDS011;6810;63.824;20.288;2024-02-21T02:43:45;2.57;;;2.00;;
13475;SDS011;6810;63.824;20.288;2024-02-21T02:46:32;2.67;;;2.30;;
13475;SDS011;6810;63.824;20.288;2024-02-21T02:49:18;4.27;;;1.77;;
13475;SDS011;6810;63.824;20.288;2024-02-21T02:52:05;2.47;;;1.93;;
13475;SDS011;6810;63.824;20.288;2024-02-21T02:54:52;2.27;;;1.80;;
13475;SDS011;6810;63.824;20.288;2024-02-21T02:57:39;2.17;;;1.80;;
13475;SDS011;6810;63.824;20.288;2024-02-21T03:00:26;2.33;;;1.63;;
13475;SDS011;6810;63.824;20.288;2024-02-21T03:03:13;2.33;;;1.33;;
13475;SDS011;6810;63.824;20.288;2024-02-21T03:06:00;2.10;;;1.27;;
13475;SDS011;6810;63.824;20.288;2024-02-21T03:08:47;1.70;;;1.10;;
13475;SDS011;6810;63.824;20.288;2024-02-21T03:11:34;1.83;;;0.90;;
13475;SDS011;6810;63.824;20.288;2024-02-21T03:14:21;1.27;;;1.00;;
13475;SDS011;6810;63.824;20.288;2024-02-21T03:17:08;0.80;;;0.80;;
13475;SDS011;6810;63.824;20.288;2024-02-21T03:19:55;1.20;;;0.60;;
13475;SDS011;6810;63.824;20.288;2024-02-21T03:22:42;0.80;;;0.80;;
13475;SDS011;6810;63.824;20.288;2024-02-21T03:25:29;0.83;;;0.60;;
13475;SDS011;6810;63.824;20.288;2024-02-21T03:28:16;0.60;;;0.60;;
13475;SDS011;6810;63.824;20.288;2024-02-21T03:31:03;0.63;;;0.50;;
13475;SDS011;6810;63.824;20.288;2024-02-21T03:33:56;0.97;;;0.67;;
13475;SDS011;6810;63.824;20.288;2024-02-21T03:36:43;1.07;;;0.80;;
13475;SDS011;6810;63.824;20.288;2024-02-21T03:39:33;0.80;;;0.50;;
13475;SDS011;6810;63.824;20.288;2024-02-21T03:42:20;0.93;;;0.67;;
13475;SDS011;6810;63.824;20.288;2024-02-21T03:45:07;0.93;;;0.67;;
13475;SDS011;6810;63.824;20.288;2024-02-21T03:47:54;0.50;;;0.50;;
13475;SDS011;6810;63.824;20.288;2024-02-21T03:50:41;0.63;;;0.50;;
13475;SDS011;6810;63.824;20.288;2024-02-21T03:53:28;0.80;;;0.80;;
13475;SDS011;6810;63.824;20.288;2024-02-21T03:56:15;1.03;;;0.70;;
13475;SDS011;6810;63.824;20.288;2024-02-21T03:59:02;0.90;;;0.73;;
13475;SDS011;6810;63.824;20.288;2024-02-21T04:01:54;0.90;;;0.87;;
13475;SDS011;6810;63.824;20.288;2024-02-21T04:04:44;0.70;;;0.70;;
13475;SDS011;6810;63.824;20.288;2024-02-21T04:07:34;0.80;;;0.80;;
13475;SDS011;6810;63.824;20.288;2024-02-21T04:10:21;0.87;;;0.70;;
13475;SDS011;6810;63.824;20.288;2024-02-21T04:13:09;0.60;;;0.50;;
13475;SDS011;6810;63.824;20.288;2024-02-21T04:15:56;0.67;;;0.67;;
13475;SDS011;6810;63.824;20.288;2024-02-21T04:18:43;1.00;;;0.60;;
13475;SDS011;6810;63.824;20.288;2024-02-21T04:21:30;0.97;;;0.80;;
13475;SDS011;6810;63.824;20.288;2024-02-21T04:24:17;0.70;;;0.70;;
13475;SDS011;6810;63.824;20.288;2024-02-21T04:27:04;0.50;;;0.50;;
13475;SDS011;6810;63.824;20.288;2024-02-21T04:29:51;0.43;;;0.43;;
13475;SDS011;6810;63.824;20.288;2024-02-21T04:32:38;0.50;;;0.50;;
13475;SDS011;6810;63.824;20.288;2024-02-21T04:35:25;0.80;;;0.60;;
13475;SDS011;6810;63.824;20.288;2024-02-21T04:38:12;0.50;;;0.50;;
13475;SDS011;6810;63.824;20.288;2024-02-21T04:40:59;0.50;;;0.43;;
13475;SDS011;6810;63.824;20.288;2024-02-21T04:43:46;0.70;;;0.30;;
13475;SDS011;6810;63.824;20.288;2024-02-21T04:46:33;0.87;;;0.60;;
13475;SDS011;6810;63.824;20.288;2024-02-21T04:49:20;0.60;;;0.40;;
13475;SDS011;6810;63.824;20.288;2024-02-21T04:52:07;0.60;;;0.40;;
13475;SDS011;6810;63.824;20.288;2024-02-21T04:54:54;0.40;;;0.40;;
13475;SDS011;6810;63.824;20.288;2024-02-21T04:57:41;0.43;;;0.40;;
13475;SDS011;6810;63.824;20.288;2024-02-21T05:00:28;0.60;;;0.60;;
13475;SDS011;6810;63.824;20.288;2024-02-21T05:03:15;0.70;;;0.50;;
13475;SDS011;6810;63.824;20.288;2024-02-21T05:06:02;0.50;;;0.40;;
13475;SDS011;6810;63.824;20.288;2024-02-21T05:08:49;1.10;;;0.70;;
13475;SDS011;6810;63.824;20.288;2024-02-21T05:11:36;1.10;;;0.73;;
13475;SDS011;6810;63.824;20.288;2024-02-21T05:14:27;1.10;;;0.60;;
13475;SDS011;6810;63.824;20.288;2024-02-21T05:17:14;0.60;;;0.60;;
13475;SDS011;6810;63.824;20.288;2024-02-21T05:20:02;0.80;;;0.60;;
13475;SDS011;6810;63.824;20.288;2024-02-21T05:22:49;0.47;;;0.43;;
13475;SDS011;6810;63.824;20.288;2024-02-21T05:25:36;1.30;;;1.20;;
13475;SDS011;6810;63.824;20.288;2024-02-21T05:28:23;0.50;;;0.50;;
13475;SDS011;6810;63.824;20.288;2024-02-21T05:31:10;0.80;;;0.80;;
13475;SDS011;6810;63.824;20.288;2024-02-21T05:33:57;0.83;;;0.53;;
13475;SDS011;6810;63.824;20.288;2024-02-21T05:36:44;0.53;;;0.53;;
13475;SDS011;6810;63.824;20.288;2024-02-21T05:39:13;1.47;;;0.97;;
13475;SDS011;6810;63.824;20.288;2024-02-21T05:42:00;0.70;;;0.57;;
13475;SDS011;6810;63.824;20.288;2024-02-21T05:44:47;0.67;;;0.60;;
13475;SDS011;6810;63.824;20.288;2024-02-21T05:47:33;1.77;;;0.60;;
13475;SDS011;6810;63.824;20.288;2024-02-21T05:50:20;0.80;;;0.70;;
13475;SDS011;6810;63.824;20.288;2024-02-21T05:53:07;0.97;;;0.63;;
13475;SDS011;6810;63.824;20.288;2024-02-21T05:55:54;0.70;;;0.70;;
13475;SDS011;6810;63.824;20.288;2024-02-21T05:58:41;0.80;;;0.57;;
13475;SDS011;6810;63.824;20.288;2024-02-21T06:01:28;0.70;;;0.70;;
13475;SDS011;6810;63.824;20.288;2024-02-21T06:04:15;0.80;;;0.60;;
13475;SDS011;6810;63.824;20.288;2024-02-21T06:07:02;2.80;;;0.70;;
13475;SDS011;6810;63.824;20.288;2024-02-21T06:09:29;0.97;;;0.63;;
13475;SDS011;6810;63.824;20.288;2024-02-21T06:12:16;0.83;;;0.70;;
13475;SDS011;6810;63.824;20.288;2024-02-21T06:15:03;2.13;;;0.90;;
13475;SDS011;6810;63.824;20.288;2024-02-21T06:17:50;0.90;;;0.70;;
13475;SDS011;6810;63.824;20.288;2024-02-21T06:20:37;0.70;;;0.67;;
13475;SDS011;6810;63.824;20.288;2024-02-21T06:23:24;0.60;;;0.60;;
13475;SDS011;6810;63.824;20.288;2024-02-21T06:26:11;0.37;;;0.37;;
13475;SDS011;6810;63.824;20.288;2024-02-21T06:28:58;0.73;;;0.50;;
13475;SDS011;6810;63.824;20.288;2024-02-21T06:31:44;0.70;;;0.70;;
13475;SDS011;6810;63.824;20.288;2024-02-21T06:34:32;1.00;;;0.80;;
13475;SDS011;6810;63.824;20.288;2024-02-21T06:37:19;0.90;;;0.90;;
13475;SDS011;6810;63.824;20.288;2024-02-21T06:40:06;0.70;;;0.70;;
13475;SDS011;6810;63.824;20.288;2024-02-21T06:42:53;0.77;;;0.60;;
13475;SDS011;6810;63.824;20.288;2024-02-21T06:45:40;0.47;;;0.47;;
13475;SDS011;6810;63.824;20.288;2024-02-21T06:48:27;0.53;;;0.53;;
13475;SDS011;6810;63.824;20.288;2024-02-21T06:51:14;0.73;;;0.67;;
13475;SDS011;6810;63.824;20.288;2024-02-21T06:54:01;0.80;;;0.60;;
13475;SDS011;6810;63.824;20.288;2024-02-21T06:56:48;0.47;;;0.47;;
13475;SDS011;6810;63.824;20.288;2024-02-21T06:59:34;0.73;;;0.70;;
13475;SDS011;6810;63.824;20.288;2024-02-21T07:02:21;0.70;;;0.67;;
13475;SDS011;6810;63.824;20.288;2024-02-21T07:05:08;0.70;;;0.70;;
13475;SDS011;6810;63.824;20.288;2024-02-21T07:07:55;1.87;;;0.90;;
13475;SDS011;6810;63.824;20.288;2024-02-21T07:10:42;0.70;;;0.70;;
13475;SDS011;6810;63.824;20.288;2024-02-21T07:13:09;1.23;;;0.90;;
13475;SDS011;6810;63.824;20.288;2024-02-21T07:15:56;1.50;;;0.97;;
13475;SDS011;6810;63.824;20.288;2024-02-21T07:18:43;1.53;;;1.00;;
13475;SDS011;6810;63.824;20.288;2024-02-21T07:21:30;0.83;;;0.70;;
13475;SDS011;6810;63.824;20.288;2024-02-21T07:24:17;1.20;;;0.90;;
13475;SDS011;6810;63.824;20.288;2024-02-21T07:27:03;1.57;;;1.00;;
13475;SDS011;6810;63.824;20.288;2024-02-21T07:29:50;1.27;;;0.90;;
13475;SDS011;6810;63.824;20.288;2024-02-21T07:32:42;0.80;;;0.77;;
13475;SDS011;6810;63.824;20.288;2024-02-21T07:35:29;1.57;;;0.90;;
13475;SDS011;6810;63.824;20.288;2024-02-21T07:38:16;0.80;;;0.80;;
13475;SDS011;6810;63.824;20.288;2024-02-21T07:41:03;0.70;;;0.70;;
13475;SDS011;6810;63.824;20.288;2024-02-21T07:43:50;1.83;;;1.00;;
13475;SDS011;6810;63.824;20.288;2024-02-21T07:46:37;0.70;;;0.60;;
13475;SDS011;6810;63.824;20.288;2024-02-21T07:49:24;0.80;;;0.70;;
13475;SDS011;6810;63.824;20.288;2024-02-21T07:52:11;0.70;;;0.70;;
13475;SDS011;6810;63.824;20.288;2024-02-21T07:54:58;0.50;;;0.50;;
13475;SDS011;6810;63.824;20.288;2024-02-21T07:57:45;0.50;;;0.50;;
13475;SDS011;6810;63.824;20.288;2024-02-21T08:00:32;0.60;;;0.60;;
13475;SDS011;6810;63.824;20.288;2024-02-21T08:03:19;0.40;;;0.37;;
13475;SDS011;6810;63.824;20.288;2024-02-21T08:06:11;0.40;;;0.40;;
13475;SDS011;6810;63.824;20.288;2024-02-21T08:08:59;0.30;;;0.30;;
13475;SDS011;6810;63.824;20.288;2024-02-21T08:11:45;0.20;;;0.20;;
13475;SDS011;6810;63.824;20.288;2024-02-21T08:14:32;0.30;;;0.30;;
13475;SDS011;6810;63.824;20.288;2024-02-21T08:17:19;0.20;;;0.20;;
13475;SDS011;6810;63.824;20.288;2024-02-21T08:20:06;0.40;;;0.30;;
13475;SDS011;6810;63.824;20.288;2024-02-21T08:22:53;0.50;;;0.43;;
13475;SDS011;6810;63.824;20.288;2024-02-21T08:25:40;0.30;;;0.30;;
13475;SDS011;6810;63.824;20.288;2024-02-21T09:04:15;0.50;;;0.17;;
13475;SDS011;6810;63.824;20.288;2024-02-21T09:06:42;0.13;;;0.13;;
13475;SDS011;6810;63.824;20.288;2024-02-21T09:09:29;0.13;;;0.13;;
13475;SDS011;6810;63.824;20.288;2024-02-21T09:12:16;0.37;;;0.27;;
13475;SDS011;6810;63.824;20.288;2024-02-21T09:15:04;0.57;;;0.30;;
13475;SDS011;6810;63.824;20.288;2024-02-21T09:17:51;0.30;;;0.30;;
13475;SDS011;6810;63.824;20.288;2024-02-21T09:20:38;0.20;;;0.20;;
13475;SDS011;6810;63.824;20.288;2024-02-21T09:23:25;0.30;;;0.30;;
13475;SDS011;6810;63.824;20.288;2024-02-21T09:26:12;0.70;;;0.30;;
13475;SDS011;6810;63.824;20.288;2024-02-21T09:28:59;0.43;;;0.30;;
13475;SDS011;6810;63.824;20.288;2024-02-21T09:31:51;0.20;;;0.20;;
13475;SDS011;6810;63.824;20.288;2024-02-21T09:34:38;0.77;;;0.30;;
13475;SDS011;6810;63.824;20.288;2024-02-21T09:37:28;1.03;;;0.40;;
13475;SDS011;6810;63.824;20.288;2024-02-21T09:40:15;0.80;;;0.20;;
13475;SDS011;6810;63.824;20.288;2024-02-21T09:43:05;0.20;;;0.20;;
13475;SDS011;6810;63.824;20.288;2024-02-21T09:45:53;0.50;;;0.40;;
13475;SDS011;6810;63.824;20.288;2024-02-21T09:49:05;0.37;;;0.30;;
13475;SDS011;6810;63.824;20.288;2024-02-21T09:52:01;0.30;;;0.30;;
13475;SDS011;6810;63.824;20.288;2024-02-21T09:54:49;0.60;;;0.30;;
13475;SDS011;6810;63.824;20.288;2024-02-21T09:57:36;0.57;;;0.30;;
13475;SDS011;6810;63.824;20.288;2024-02-21T10:00:24;0.50;;;0.40;;
13475;SDS011;6810;63.824;20.288;2024-02-21T10:03:10;0.53;;;0.27;;
13475;SDS011;6810;63.824;20.288;2024-02-21T10:05:57;0.40;;;0.30;;
13475;SDS011;6810;63.824;20.288;2024-02-21T10:08:51;0.30;;;0.30;;
13475;SDS011;6810;63.824;20.288;2024-02-21T10:11:38;0.60;;;0.20;;
13475;SDS011;6810;63.824;20.288;2024-02-21T10:14:25;0.50;;;0.20;;
13475;SDS011;6810;63.824;20.288;2024-02-21T10:17:18;0.47;;;0.20;;
13475;SDS011;6810;63.824;20.288;2024-02-21T10:20:09;0.30;;;0.20;;
13475;SDS011;6810;63.824;20.288;2024-02-21T10:23:03;0.33;;;0.20;;
13475;SDS011;6810;63.824;20.288;2024-02-21T10:25:53;0.20;;;0.10;;
13475;SDS011;6810;63.824;20.288;2024-02-21T10:28:40;0.10;;;0.10;;
13475;SDS011;6810;63.824;20.288;2024-02-21T10:31:27;0.57;;;0.20;;
13475;SDS011;6810;63.824;20.288;2024-02-21T10:34:16;0.00;;;0.00;;
13475;SDS011;6810;63.824;20.288;2024-02-21T10:37:07;0.20;;;0.10;;
13475;SDS011;6810;63.824;20.288;2024-02-21T10:39:55;0.37;;;0.20;;
13475;SDS011;6810;63.824;20.288;2024-02-21T10:42:42;0.00;;;0.00;;
13475;SDS011;6810;63.824;20.288;2024-02-21T10:45:39;0.20;;;0.20;;
13475;SDS011;6810;63.824;20.288;2024-02-21T10:48:28;0.00;;;0.00;;
13475;SDS011;6810;63.824;20.288;2024-02-21T10:51:23;0.30;;;0.13;;
13475;SDS011;6810;63.824;20.288;2024-02-21T10:57:45;0.73;;;0.23;;
13475;SDS011;6810;63.824;20.288;2024-02-21T11:00:32;0.03;;;0.03;;
13475;SDS011;6810;63.824;20.288;2024-02-21T11:03:20;0.20;;;0.20;;
13475;SDS011;6810;63.824;20.288;2024-02-21T11:06:09;0.07;;;0.07;;
13475;SDS011;6810;63.824;20.288;2024-02-21T11:09:02;0.20;;;0.13;;
13475;SDS011;6810;63.824;20.288;2024-02-21T11:11:33;0.00;;;0.00;;
13475;SDS011;6810;63.824;20.288;2024-02-21T11:14:07;0.07;;;0.07;;
13475;SDS011;6810;63.824;20.288;2024-02-21T11:16:39;0.00;;;0.00;;
13475;SDS011;6810;63.824;20.288;2024-02-21T11:19:20;0.00;;;0.00;;
13475;SDS011;6810;63.824;20.288;2024-02-21T11:21:48;0.10;;;0.10;;
13475;SDS011;6810;63.824;20.288;2024-02-21T11:24:32;0.00;;;0.00;;
13475;SDS011;6810;63.824;20.288;2024-02-21T11:27:13;0.10;;;0.10;;
13475;SDS011;6810;63.824;20.288;2024-02-21T11:32:10;0.10;;;0.10;;
13475;SDS011;6810;63.824;20.288;2024-02-21T11:34:54;0.20;;;0.00;;
13475;SDS011;6810;63.824;20.288;2024-02-21T11:37:49;0.10;;;0.10;;
13475;SDS011;6810;63.824;20.288;2024-02-21T11:40:38;0.17;;;0.03;;
13475;SDS011;6810;63.824;20.288;2024-02-21T11:43:25;0.00;;;0.00;;
13475;SDS011;6810;63.824;20.288;2024-02-21T11:46:13;0.10;;;0.00;;
13475;SDS011;6810;63.824;20.288;2024-02-21T11:49:01;0.00;;;0.00;;
13475;SDS011;6810;63.824;20.288;2024-02-21T11:51:48;0.03;;;0.03;;
13475;SDS011;6810;63.824;20.288;2024-02-21T11:54:35;0.50;;;0.30;;
13475;SDS011;6810;63.824;20.288;2024-02-21T11:57:22;0.07;;;0.00;;
13475;SDS011;6810;63.824;20.288;2024-02-21T12:00:13;0.03;;;0.03;;
13475;SDS011;6810;63.824;20.288;2024-02-21T12:02:42;0.23;;;0.23;;
13475;SDS011;6810;63.824;20.288;2024-02-21T12:05:30;0.30;;;0.10;;
13475;SDS011;6810;63.824;20.288;2024-02-21T12:08:18;0.00;;;0.00;;
13475;SDS011;6810;63.824;20.288;2024-02-21T12:11:21;0.17;;;0.10;;
13475;SDS011;6810;63.824;20.288;2024-02-21T12:14:09;0.30;;;0.13;;
13475;SDS011;6810;63.824;20.288;2024-02-21T12:16:56;1.03;;;0.10;;
13475;SDS011;6810;63.824;20.288;2024-02-21T12:19:43;0.00;;;0.00;;
13475;SDS011;6810;63.824;20.288;2024-02-21T12:22:30;0.13;;;0.10;;
13475;SDS011;6810;63.824;20.288;2024-02-21T12:25:17;0.10;;;0.10;;
13475;SDS011;6810;63.824;20.288;2024-02-21T12:28:05;1.13;;;0.13;;
13475;SDS011;6810;63.824;20.288;2024-02-21T12:30:52;0.00;;;0.00;;
13475;SDS011;6810;63.824;20.288;2024-02-21T12:33:42;0.10;;;0.10;;
13475;SDS011;6810;63.824;20.288;2024-02-21T12:36:33;0.00;;;0.00;;
13475;SDS011;6810;63.824;20.288;2024-02-21T12:39:20;0.30;;;0.10;;
13475;SDS011;6810;63.824;20.288;2024-02-21T12:42:07;0.10;;;0.10;;
13475;SDS011;6810;63.824;20.288;2024-02-21T12:44:54;0.00;;;0.00;;
13475;SDS011;6810;63.824;20.288;2024-02-21T12:47:41;0.07;;;0.07;;
13475;SDS011;6810;63.824;20.288;2024-02-21T12:50:28;0.03;;;0.03;;
13475;SDS011;6810;63.824;20.288;2024-02-21T12:53:15;0.30;;;0.10;;
13475;SDS011;6810;63.824;20.288;2024-02-21T12:56:03;0.00;;;0.00;;
13475;SDS011;6810;63.824;20.288;2024-02-21T12:58:50;0.10;;;0.10;;
13475;SDS011;6810;63.824;20.288;2024-02-21T13:01:37;0.10;;;0.03;;
13475;SDS011;6810;63.824;20.288;2024-02-21T13:04:24;0.37;;;0.33;;
13475;SDS011;6810;63.824;20.288;2024-02-21T13:07:11;0.10;;;0.00;;
13475;SDS011;6810;63.824;20.288;2024-02-21T13:09:58;0.10;;;0.10;;
13475;SDS011;6810;63.824;20.288;2024-02-21T13:12:45;0.00;;;0.00;;
13475;SDS011;6810;63.824;20.288;2024-02-21T13:15:32;0.63;;;0.20;;
13475;SDS011;6810;63.824;20.288;2024-02-21T13:18:19;0.37;;;0.10;;
13475;SDS011;6810;63.824;20.288;2024-02-21T13:21:06;0.10;;;0.10;;
13475;SDS011;6810;63.824;20.288;2024-02-21T13:23:53;0.20;;;0.20;;
13475;SDS011;6810;63.824;20.288;2024-02-21T13:26:39;0.07;;;0.07;;
13475;SDS011;6810;63.824;20.288;2024-02-21T13:29:26;0.10;;;0.10;;
13475;SDS011;6810;63.824;20.288;2024-02-21T13:32:13;0.00;;;0.00;;
13475;SDS011;6810;63.824;20.288;2024-02-21T13:35:00;0.00;;;0.00;;
13475;SDS011;6810;63.824;20.288;2024-02-21T13:37:47;0.10;;;0.00;;
13475;SDS011;6810;63.824;20.288;2024-02-21T13:40:34;0.63;;;0.10;;
13475;SDS011;6810;63.824;20.288;2024-02-21T13:43:21;0.00;;;0.00;;
13475;SDS011;6810;63.824;20.288;2024-02-21T13:46:08;0.10;;;0.00;;
13475;SDS011;6810;63.824;20.288;2024-02-21T13:49:01;0.10;;;0.03;;
13475;SDS011;6810;63.824;20.288;2024-02-21T13:51:53;0.20;;;0.20;;
13475;SDS011;6810;63.824;20.288;2024-02-21T13:54:40;0.10;;;0.10;;
13475;SDS011;6810;63.824;20.288;2024-02-21T13:57:27;0.27;;;0.10;;
13475;SDS011;6810;63.824;20.288;2024-02-21T14:00:15;0.30;;;0.10;;
13475;SDS011;6810;63.824;20.288;2024-02-21T14:03:02;0.20;;;0.20;;
13475;SDS011;6810;63.824;20.288;2024-02-21T14:05:49;0.10;;;0.00;;
13475;SDS011;6810;63.824;20.288;2024-02-21T14:08:36;0.27;;;0.10;;
13475;SDS011;6810;63.824;20.288;2024-02-21T14:11:23;0.20;;;0.20;;
13475;SDS011;6810;63.824;20.288;2024-02-21T14:14:10;0.40;;;0.20;;
13475;SDS011;6810;63.824;20.288;2024-02-21T14:16:57;0.30;;;0.03;;
13475;SDS011;6810;63.824;20.288;2024-02-21T14:19:44;0.10;;;0.10;;
13475;SDS011;6810;63.824;20.288;2024-02-21T14:22:31;0.57;;;0.10;;
13475;SDS011;6810;63.824;20.288;2024-02-21T14:25:18;0.30;;;0.10;;
13475;SDS011;6810;63.824;20.288;2024-02-21T14:28:05;0.83;;;0.10;;
13475;SDS011;6810;63.824;20.288;2024-02-21T14:30:52;0.20;;;0.20;;
13475;SDS011;6810;63.824;20.288;2024-02-21T14:33:39;0.27;;;0.10;;
13475;SDS011;6810;63.824;20.288;2024-02-21T14:36:27;0.00;;;0.00;;
13475;SDS011;6810;63.824;20.288;2024-02-21T14:39:13;0.50;;;0.10;;
13475;SDS011;6810;63.824;20.288;2024-02-21T14:42:00;0.00;;;0.00;;
13475;SDS011;6810;63.824;20.288;2024-02-21T14:44:48;0.07;;;0.00;;
13475;SDS011;6810;63.824;20.288;2024-02-21T14:47:34;0.10;;;0.10;;
13475;SDS011;6810;63.824;20.288;2024-02-21T14:50:21;0.30;;;0.13;;
13475;SDS011;6810;63.824;20.288;2024-02-21T14:53:08;0.27;;;0.10;;
13475;SDS011;6810;63.824;20.288;2024-02-21T14:55:55;0.00;;;0.00;;
13475;SDS011;6810;63.824;20.288;2024-02-21T15:02:00;0.20;;;0.10;;
13475;SDS011;6810;63.824;20.288;2024-02-21T15:04:47;0.10;;;0.10;;
13475;SDS011;6810;63.824;20.288;2024-02-21T15:07:34;0.10;;;0.10;;
13475;SDS011;6810;63.824;20.288;2024-02-21T15:10:21;1.17;;;0.30;;
13475;SDS011;6810;63.824;20.288;2024-02-21T15:13:08;1.00;;;0.20;;
13475;SDS011;6810;63.824;20.288;2024-02-21T15:15:55;0.10;;;0.10;;
13475;SDS011;6810;63.824;20.288;2024-02-21T15:18:42;0.40;;;0.30;;
13475;SDS011;6810;63.824;20.288;2024-02-21T15:21:29;0.47;;;0.30;;
13475;SDS011;6810;63.824;20.288;2024-02-21T15:24:16;0.27;;;0.20;;
13475;SDS011;6810;63.824;20.288;2024-02-21T15:27:03;0.20;;;0.20;;
13475;SDS011;6810;63.824;20.288;2024-02-21T15:29:50;0.43;;;0.20;;
13475;SDS011;6810;63.824;20.288;2024-02-21T15:32:38;0.20;;;0.20;;
13475;SDS011;6810;63.824;20.288;2024-02-21T15:35:25;0.20;;;0.20;;
13475;SDS011;6810;63.824;20.288;2024-02-21T15:38:12;0.10;;;0.10;;
13475;SDS011;6810;63.824;20.288;2024-02-21T15:40:59;0.47;;;0.20;;
13475;SDS011;6810;63.824;20.288;2024-02-21T15:43:46;0.30;;;0.20;;
13475;SDS011;6810;63.824;20.288;2024-02-21T15:46:33;0.30;;;0.30;;
13475;SDS011;6810;63.824;20.288;2024-02-21T15:49:22;0.50;;;0.37;;
13475;SDS011;6810;63.824;20.288;2024-02-21T15:52:09;0.87;;;0.57;;
13475;SDS011;6810;63.824;20.288;2024-02-21T15:54:57;1.33;;;0.37;;
13475;SDS011;6810;63.824;20.288;2024-02-21T15:57:44;1.03;;;0.33;;
13475;SDS011;6810;63.824;20.288;2024-02-21T16:00:31;0.53;;;0.33;;
13475;SDS011;6810;63.824;20.288;2024-02-21T16:03:18;0.63;;;0.40;;
13475;SDS011;6810;63.824;20.288;2024-02-21T16:06:07;0.53;;;0.30;;
13475;SDS011;6810;63.824;20.288;2024-02-21T16:08:54;0.63;;;0.30;;
13475;SDS011;6810;63.824;20.288;2024-02-21T16:11:40;0.60;;;0.40;;
13475;SDS011;6810;63.824;20.288;2024-02-21T16:14:27;1.90;;;0.30;;
13475;SDS011;6810;63.824;20.288;2024-02-21T16:17:14;0.53;;;0.50;;
13475;SDS011;6810;63.824;20.288;2024-02-21T16:20:01;0.63;;;0.40;;
13475;SDS011;6810;63.824;20.288;2024-02-21T16:22:49;0.50;;;0.40;;
13475;SDS011;6810;63.824;20.288;2024-02-21T16:25:36;1.00;;;0.50;;
13475;SDS011;6810;63.824;20.288;2024-02-21T16:28:23;0.40;;;0.40;;
13475;SDS011;6810;63.824;20.288;2024-02-21T16:31:13;0.43;;;0.40;;
13475;SDS011;6810;63.824;20.288;2024-02-21T16:34:00;0.60;;;0.47;;
13475;SDS011;6810;63.824;20.288;2024-02-21T16:36:47;0.50;;;0.50;;
13475;SDS011;6810;63.824;20.288;2024-02-21T16:39:34;0.83;;;0.40;;
13475;SDS011;6810;63.824;20.288;2024-02-21T16:42:21;0.57;;;0.33;;
13475;SDS011;6810;63.824;20.288;2024-02-21T16:45:08;0.40;;;0.40;;
13475;SDS011;6810;63.824;20.288;2024-02-21T16:47:55;0.77;;;0.53;;
13475;SDS011;6810;63.824;20.288;2024-02-21T16:50:42;0.60;;;0.50;;
13475;SDS011;6810;63.824;20.288;2024-02-21T16:53:29;0.50;;;0.50;;
13475;SDS011;6810;63.824;20.288;2024-02-21T16:56:15;0.97;;;0.60;;
13475;SDS011;6810;63.824;20.288;2024-02-21T16:59:03;0.80;;;0.50;;
13475;SDS011;6810;63.824;20.288;2024-02-21T17:01:50;1.00;;;0.70;;
13475;SDS011;6810;63.824;20.288;2024-02-21T17:04:40;0.60;;;0.53;;
13475;SDS011;6810;63.824;20.288;2024-02-21T17:07:27;1.53;;;0.80;;
13475;SDS011;6810;63.824;20.288;2024-02-21T17:10:14;1.07;;;0.60;;
13475;SDS011;6810;63.824;20.288;2024-02-21T17:13:02;1.07;;;0.60;;
13475;SDS011;6810;63.824;20.288;2024-02-21T17:15:51;0.80;;;0.50;;
13475;SDS011;6810;63.824;20.288;2024-02-21T17:18:18;1.10;;;0.70;;
13475;SDS011;6810;63.824;20.288;2024-02-21T17:20:45;1.30;;;0.87;;
13475;SDS011;6810;63.824;20.288;2024-02-21T17:23:14;0.90;;;0.73;;
13475;SDS011;6810;63.824;20.288;2024-02-21T17:26:01;1.23;;;0.60;;
13475;SDS011;6810;63.824;20.288;2024-02-21T17:28:49;1.03;;;0.90;;
13475;SDS011;6810;63.824;20.288;2024-02-21T17:31:36;1.47;;;1.20;;